Cosco Kaohsiung — VREM3 — position and weather

sailwx.info

Track history (hours):
 
Tides and Currents Weather Stations Pressure Air Temp Water Temp Dewpoint Dewpoint Depression Visibility Wind Speed Wind Dir Waves Ship Positions

Cosco Kaohsiung

Last reported at 2016-Feb-07 04:05 UTC. Time now 2016-Feb-12 09:56 UTC.
Position N 31°16' E 121°51'.

Length 349 m; draft 11.9 m.

Type: Ship (hazmat cat A). MMSI: 477136800.

Date/timePositionNaut miles runAvg speedWind from/ knotsBaromVisibWave heightAir tempDewpointWater temp
2016-Feb-07 04:05N 31°16' E 121°51'713.0
2016-Feb-07 03:33N 31°19' E 121°43'8 8.0
2016-Feb-07 02:31N 31°23' E 121°35'0 0.0
2016-Feb-07 01:19N 31°23' E 121°35'0 0.0
2016-Feb-07 00:25N 31°23' E 121°35'0 0.0
2016-Feb-06 23:19N 31°23' E 121°35'0 0.0
2016-Feb-06 22:25N 31°23' E 121°35'0 0.0
2016-Feb-06 21:31N 31°23' E 121°35'0 0.0
2016-Feb-06 20:25N 31°23' E 121°35'0 0.0
2016-Feb-06 18:25N 31°23' E 121°35'0 0.0
2016-Feb-06 17:31N 31°23' E 121°35'0 0.0
2016-Feb-06 16:25N 31°23' E 121°35'0 0.0
2016-Feb-06 15:25N 31°23' E 121°35'0 0.0
2016-Feb-06 14:31N 31°23' E 121°35'0 0.0
2016-Feb-06 13:25N 31°23' E 121°35'0 0.0
2016-Feb-06 12:31N 31°23' E 121°35'0 0.0
2016-Feb-06 11:13N 31°23' E 121°35'0 0.0
2016-Feb-06 10:31N 31°23' E 121°35'0 0.0
2016-Feb-06 09:31N 31°23' E 121°35'0 0.0
2016-Feb-06 07:19N 31°23' E 121°35'0 0.0
2016-Feb-06 06:19N 31°23' E 121°35'0 0.0
2016-Feb-06 05:31N 31°23' E 121°35'0 0.0
2016-Feb-06 04:31N 31°23' E 121°35'1 0.5
2016-Feb-06 03:32N 31°23' E 121°34'2 2.1
2016-Feb-06 02:33N 31°22' E 121°37'8 7.8
2016-Feb-06 01:33N 31°19' E 121°45'1211.9
2016-Feb-06 00:33N 31°15' E 121°58'58 2.4
2016-Feb-05 00:29N 30°41' E 122°53'6 6.3
2016-Feb-04 23:33N 30°36' E 122°52'7 6.4
2016-Feb-04 22:32N 30°29' E 122°52'  
2016-Feb-02 05:06N 23°32' E 117°58'22510.9
2016-Feb-01 08:33N 22°20' E 114°07'0 0.3
2016-Feb-01 07:29N 22°19' E 114°07'0 0.0
2016-Feb-01 05:23N 22°19' E 114°07'0 0.0
2016-Feb-01 04:29N 22°19' E 114°07'0 0.0
2016-Feb-01 03:29N 22°19' E 114°07'0 0.0
2016-Feb-01 02:29N 22°19' E 114°07'0 0.0
2016-Feb-01 01:29N 22°19' E 114°07'0 0.0
2016-Feb-01 00:29N 22°19' E 114°07'0 0.0
2016-Jan-31 23:29N 22°19' E 114°07'0 0.0
2016-Jan-31 22:29N 22°19' E 114°07'0 0.0
2016-Jan-31 21:23N 22°19' E 114°07'2 2.7
2016-Jan-31 20:34N 22°18' E 114°06'12 8.4
2016-Jan-31 19:09N 22°09' E 114°15'711.9
2016-Jan-31 18:33N 22°05' E 114°21'  
Track history (hours):
 
Tides and Currents Weather Stations Pressure Air Temp Water Temp Dewpoint Dewpoint Depression Visibility Wind Speed Wind Dir Waves Ship Positions

Cosco Kaohsiung

Last reported at 2016-Feb-07 04:05 UTC. Time now 2016-Feb-12 09:56 UTC.
Position N 31°16' E 121°51'.

Length 349 m; draft 11.9 m.

Type: Ship (hazmat cat A). MMSI: 477136800.

Date/timePositionNaut miles runAvg speedWind from/ knotsBaromVisibWave heightAir tempDewpointWater temp
2016-Feb-07 04:05N 31°16' E 121°51'713.0
2016-Feb-07 03:33N 31°19' E 121°43'8 8.0
2016-Feb-07 02:31N 31°23' E 121°35'0 0.0
2016-Feb-07 01:19N 31°23' E 121°35'0 0.0
2016-Feb-07 00:25N 31°23' E 121°35'0 0.0
2016-Feb-06 23:19N 31°23' E 121°35'0 0.0
2016-Feb-06 22:25N 31°23' E 121°35'0 0.0
2016-Feb-06 21:31N 31°23' E 121°35'0 0.0
2016-Feb-06 20:25N 31°23' E 121°35'0 0.0
2016-Feb-06 18:25N 31°23' E 121°35'0 0.0
2016-Feb-06 17:31N 31°23' E 121°35'0 0.0
2016-Feb-06 16:25N 31°23' E 121°35'0 0.0
2016-Feb-06 15:25N 31°23' E 121°35'0 0.0
2016-Feb-06 14:31N 31°23' E 121°35'0 0.0
2016-Feb-06 13:25N 31°23' E 121°35'0 0.0
2016-Feb-06 12:31N 31°23' E 121°35'0 0.0
2016-Feb-06 11:13N 31°23' E 121°35'0 0.0
2016-Feb-06 10:31N 31°23' E 121°35'0 0.0
2016-Feb-06 09:31N 31°23' E 121°35'0 0.0
2016-Feb-06 07:19N 31°23' E 121°35'0 0.0
2016-Feb-06 06:19N 31°23' E 121°35'0 0.0
2016-Feb-06 05:31N 31°23' E 121°35'0 0.0
2016-Feb-06 04:31N 31°23' E 121°35'1 0.5
2016-Feb-06 03:32N 31°23' E 121°34'2 2.1
2016-Feb-06 02:33N 31°22' E 121°37'8 7.8
2016-Feb-06 01:33N 31°19' E 121°45'1211.9
2016-Feb-06 00:33N 31°15' E 121°58'58 2.4
2016-Feb-05 00:29N 30°41' E 122°53'6 6.3
2016-Feb-04 23:33N 30°36' E 122°52'7 6.4
2016-Feb-04 22:32N 30°29' E 122°52'  
2016-Feb-02 05:06N 23°32' E 117°58'22510.9
2016-Feb-01 08:33N 22°20' E 114°07'0 0.3
2016-Feb-01 07:29N 22°19' E 114°07'0 0.0
2016-Feb-01 05:23N 22°19' E 114°07'0 0.0
2016-Feb-01 04:29N 22°19' E 114°07'0 0.0
2016-Feb-01 03:29N 22°19' E 114°07'0 0.0
2016-Feb-01 02:29N 22°19' E 114°07'0 0.0
2016-Feb-01 01:29N 22°19' E 114°07'0 0.0
2016-Feb-01 00:29N 22°19' E 114°07'0 0.0
2016-Jan-31 23:29N 22°19' E 114°07'0 0.0
2016-Jan-31 22:29N 22°19' E 114°07'0 0.0
2016-Jan-31 21:23N 22°19' E 114°07'2 2.7
2016-Jan-31 20:34N 22°18' E 114°06'12 8.4
2016-Jan-31 19:09N 22°09' E 114°15'711.9
2016-Jan-31 18:33N 22°05' E 114°21'  

Dump ship's entire track history